Time;durP1;ratioP1;P1;durP2;ratioP2;P2;SDS_P1;SDS_P2;PMS_P1;PMS_P2;Temp;Humidity;BMP_temperature;BMP_pressure;BME280_temperature;BME280_humidity;BME280_pressure;Samples;Min_cycle;Max_cycle;Signal;HPM_P1;HPM_P2
2021/04/23 00:00:48;;;;;;;14.40;6.60;;;4.40;80.50;;;;;;5111055;28;20039;-73
2021/04/23 00:03:43;;;;;;;13.40;6.23;;;4.30;80.60;;;;;;5111351;28;20801;-72
2021/04/23 00:06:18;;;;;;;11.53;6.30;;;4.30;80.80;;;;;;5111520;28;20301;-74
2021/04/23 00:08:48;;;;;;;15.60;6.30;;;4.30;80.80;;;;;;5111559;28;20301;-73
2021/04/23 00:11:16;;;;;;;12.53;6.33;;;4.30;80.80;;;;;;5111519;28;20464;-73
2021/04/23 00:13:42;;;;;;;15.77;6.40;;;4.30;80.80;;;;;;5110547;28;20289;-72
2021/04/23 00:16:09;;;;;;;13.33;6.43;;;4.20;80.80;;;;;;5111303;28;20370;-72
2021/04/23 00:18:35;;;;;;;14.07;6.43;;;4.20;80.80;;;;;;5111845;28;20293;-72
2021/04/23 00:21:02;;;;;;;12.87;5.87;;;4.20;81.10;;;;;;5110398;28;20312;-73
2021/04/23 00:23:28;;;;;;;10.80;6.13;;;4.20;81.20;;;;;;5111707;28;20378;-72
2021/04/23 00:25:54;;;;;;;10.57;5.00;;;4.10;81.20;;;;;;5111353;28;20346;-72
2021/04/23 00:28:21;;;;;;;16.13;5.80;;;4.20;81.30;;;;;;5110746;28;20770;-73
2021/04/23 00:30:51;;;;;;;13.77;6.30;;;4.20;81.40;;;;;;5111455;28;20294;-73
2021/04/23 00:33:17;;;;;;;13.93;5.67;;;4.20;81.30;;;;;;5111117;28;20735;-73
2021/04/23 00:35:45;;;;;;;14.40;6.17;;;4.10;81.40;;;;;;5110555;28;20297;-73
2021/04/23 00:38:17;;;;;;;14.90;5.47;;;4.10;81.40;;;;;;5111153;28;20774;-73
2021/04/23 00:40:50;;;;;;;12.00;5.73;;;4.10;81.60;;;;;;5111034;28;20764;-72
2021/04/23 00:43:22;;;;;;;12.97;5.17;;;4.10;81.70;;;;;;5110522;28;20662;-72
2021/04/23 00:45:49;;;;;;;16.08;6.32;;;4.00;81.70;;;;;;5111194;28;20300;-73
2021/04/23 00:48:16;;;;;;;13.57;5.93;;;4.00;81.70;;;;;;5111230;28;20075;-73
2021/04/23 00:50:45;;;;;;;16.60;6.10;;;4.00;81.80;;;;;;5110401;28;20301;-73
2021/04/23 00:53:16;;;;;;;12.50;5.77;;;4.00;82.00;;;;;;5110985;28;20369;-72
2021/04/23 00:55:42;;;;;;;11.77;6.03;;;4.00;82.10;;;;;;5110458;28;20298;-73
2021/04/23 00:58:20;;;;;;;16.27;5.83;;;3.90;82.10;;;;;;5111023;28;20383;-73
2021/04/23 01:00:49;;;;;;;11.37;5.20;;;3.90;82.40;;;;;;5110929;28;20503;-73
2021/04/23 01:03:18;;;;;;;15.10;5.60;;;3.90;82.50;;;;;;5110052;28;20366;-73
2021/04/23 01:05:45;;;;;;;15.57;6.13;;;3.80;82.70;;;;;;5110885;28;20296;-73
2021/04/23 01:08:11;;;;;;;15.93;5.70;;;3.80;82.60;;;;;;5111113;28;20351;-73
2021/04/23 01:10:37;;;;;;;11.37;6.30;;;3.80;82.90;;;;;;5112982;28;20297;-73
2021/04/23 01:13:03;;;;;;;15.80;6.30;;;3.80;83.00;;;;;;5114202;28;20534;-72
2021/04/23 01:15:29;;;;;;;17.70;6.23;;;3.80;83.20;;;;;;5114913;28;20400;-73
2021/04/23 01:17:55;;;;;;;17.73;6.43;;;3.80;83.30;;;;;;5113445;28;20302;-73
2021/04/23 01:20:22;;;;;;;8.23;4.77;;;3.80;83.40;;;;;;5114419;28;20039;-73
2021/04/23 01:22:48;;;;;;;13.50;5.83;;;3.80;83.40;;;;;;5114463;28;20062;-73
2021/04/23 01:25:14;;;;;;;11.97;6.70;;;3.80;83.50;;;;;;5113481;28;20293;-73
2021/04/23 01:27:40;;;;;;;11.30;5.20;;;3.80;83.30;;;;;;5114451;28;20670;-73
2021/04/23 01:30:10;;;;;;;14.43;5.93;;;3.80;83.60;;;;;;5114124;28;20800;-73
2021/04/23 01:32:36;;;;;;;15.47;5.93;;;3.80;83.60;;;;;;5113417;28;20783;-73
2021/04/23 01:35:04;;;;;;;15.50;6.20;;;3.90;83.70;;;;;;5113653;28;20667;-73
2021/04/23 01:37:30;;;;;;;15.13;5.67;;;3.90;83.70;;;;;;5114402;27;20303;-73
2021/04/23 01:39:56;;;;;;;15.63;5.30;;;3.90;83.80;;;;;;5112781;28;20298;-73
2021/04/23 01:42:22;;;;;;;14.37;5.67;;;3.90;83.70;;;;;;5114079;28;20093;-73
2021/04/23 01:44:47;;;;;;;12.57;5.17;;;4.00;84.60;;;;;;5113002;28;20350;-73
2021/04/23 01:47:13;;;;;;;15.40;5.30;;;4.00;83.60;;;;;;5113852;28;20048;-73
2021/04/23 01:49:39;;;;;;;12.57;5.20;;;4.00;83.50;;;;;;5113973;28;20488;-73
2021/04/23 01:52:13;;;;;;;13.23;5.90;;;4.10;83.40;;;;;;5113163;28;20040;-73
2021/04/23 01:54:39;;;;;;;16.77;6.25;;;4.10;83.50;;;;;;5114230;28;20286;-73
2021/04/23 01:57:06;;;;;;;14.17;4.90;;;4.10;83.50;;;;;;5113456;28;20051;-73
2021/04/23 01:59:34;;;;;;;14.30;5.33;;;4.10;83.50;;;;;;5113069;28;20790;-73
2021/04/23 02:02:00;;;;;;;10.13;4.97;;;4.20;83.40;;;;;;5113103;28;20707;-73
2021/04/23 02:04:27;;;;;;;17.17;5.67;;;4.10;83.30;;;;;;5113979;28;20344;-73
2021/04/23 02:06:54;;;;;;;12.40;5.07;;;4.20;83.30;;;;;;5112959;28;20346;-73
2021/04/23 02:09:20;;;;;;;11.23;4.87;;;4.10;83.30;;;;;;5113978;28;20404;-73
2021/04/23 02:11:50;;;;;;;14.77;5.60;;;4.10;83.40;;;;;;5113463;28;20293;-73
2021/04/23 02:14:16;;;;;;;11.27;5.07;;;4.10;83.50;;;;;;5112501;28;20293;-73
2021/04/23 02:16:42;;;;;;;12.73;4.77;;;4.10;83.60;;;;;;5113718;28;20297;-73
2021/04/23 02:19:10;;;;;;;11.23;5.10;;;4.00;83.70;;;;;;5113475;28;20304;-73
2021/04/23 02:21:37;;;;;;;12.83;5.00;;;4.10;84.60;;;;;;5111492;28;20304;-73
2021/04/23 02:24:04;;;;;;;12.40;5.20;;;4.10;83.70;;;;;;5112933;28;20384;-73
2021/04/23 02:26:30;;;;;;;13.23;5.07;;;4.00;83.80;;;;;;5113337;28;20857;-73
2021/04/23 02:28:56;;;;;;;14.43;5.23;;;4.00;83.80;;;;;;5112035;28;20321;-73
2021/04/23 02:31:27;;;;;;;13.10;5.13;;;4.00;83.90;;;;;;5113455;28;20300;-73
2021/04/23 02:33:55;;;;;;;16.52;5.68;;;4.00;83.80;;;;;;5112889;28;20074;-73
2021/04/23 02:36:22;;;;;;;10.47;4.77;;;4.00;83.90;;;;;;5113223;28;20557;-73
2021/04/23 02:38:48;;;;;;;15.13;5.53;;;4.00;83.90;;;;;;5112905;28;20384;-73
2021/04/23 02:41:15;;;;;;;10.43;4.90;;;4.00;83.90;;;;;;5112013;28;20333;-73
2021/04/23 02:43:52;;;;;;;15.33;4.47;;;3.90;84.00;;;;;;5112633;28;20313;-73
2021/04/23 02:46:19;;;;;;;14.97;5.43;;;3.90;84.10;;;;;;5112906;28;20376;-73
2021/04/23 02:48:45;;;;;;;13.87;4.70;;;3.90;84.20;;;;;;5112030;28;20293;-73
2021/04/23 02:51:15;;;;;;;17.20;5.20;;;3.90;84.20;;;;;;5112702;28;20328;-72
2021/04/23 02:53:42;;;;;;;12.47;4.20;;;3.90;84.60;;;;;;5112548;28;20775;-73
2021/04/23 02:56:11;;;;;;;11.53;4.77;;;3.80;84.30;;;;;;5111664;28;20350;-73
2021/04/23 02:58:37;;;;;;;14.97;4.70;;;3.80;84.40;;;;;;5112869;28;20297;-73
2021/04/23 03:01:07;;;;;;;16.57;4.40;;;3.80;84.50;;;;;;5112219;28;20796;-73
2021/04/23 03:03:33;;;;;;;16.53;5.07;;;3.70;84.50;;;;;;5111915;28;20350;-73
2021/04/23 03:06:00;;;;;;;13.30;4.60;;;3.70;84.70;;;;;;5112177;28;20711;-72
2021/04/23 03:08:27;;;;;;;13.37;4.23;;;3.70;84.60;;;;;;5112609;28;20304;-73
2021/04/23 03:11:00;;;;;;;12.53;4.50;;;3.70;84.70;;;;;;5111242;28;20051;-73
2021/04/23 03:13:28;;;;;;;10.37;4.87;;;3.70;84.70;;;;;;5112637;28;20325;-72
2021/04/23 03:15:55;;;;;;;14.00;4.50;;;3.70;84.90;;;;;;5112193;28;20347;-72
2021/04/23 03:18:29;;;;;;;13.57;4.23;;;3.70;84.80;;;;;;5111605;28;20301;-73
2021/04/23 03:20:58;;;;;;;9.13;3.67;;;3.60;84.70;;;;;;5111579;28;20301;-73
2021/04/23 03:23:24;;;;;;;11.57;4.10;;;3.60;85.00;;;;;;5111396;28;20320;-72
2021/04/23 03:25:50;;;;;;;11.40;4.00;;;3.60;85.00;;;;;;5112051;28;20827;-73
2021/04/23 03:28:16;;;;;;;10.93;4.40;;;3.60;85.00;;;;;;5111950;28;20376;-72
2021/04/23 03:30:43;;;;;;;15.13;4.30;;;3.70;85.10;;;;;;5111296;28;20385;-72
2021/04/23 03:33:11;;;;;;;11.97;3.87;;;3.70;85.20;;;;;;5111370;28;20089;-73
2021/04/23 03:35:40;;;;;;;12.33;3.73;;;3.60;85.10;;;;;;5111910;28;20305;-72
2021/04/23 03:38:08;;;;;;;13.27;3.87;;;3.60;85.10;;;;;;5111305;28;20317;-72
2021/04/23 03:40:36;;;;;;;12.67;4.27;;;3.60;85.00;;;;;;5112094;28;20654;-73
2021/04/23 03:43:02;;;;;;;11.03;4.33;;;3.60;85.10;;;;;;5111320;28;20328;-72
2021/04/23 03:45:28;;;;;;;13.07;4.80;;;3.60;85.20;;;;;;5111128;28;20686;-73
2021/04/23 03:47:54;;;;;;;11.83;4.07;;;3.60;85.40;;;;;;5111446;28;20300;-72
2021/04/23 03:50:29;;;;;;;11.17;4.33;;;3.60;85.20;;;;;;5111735;28;20134;-72
2021/04/23 03:52:58;;;;;;;12.10;3.90;;;3.60;85.20;;;;;;5110600;28;20189;-73
2021/04/23 03:55:28;;;;;;;10.50;3.67;;;3.60;85.40;;;;;;5112030;28;20759;-73
2021/04/23 03:57:55;;;;;;;15.17;4.10;;;3.60;85.40;;;;;;5111613;28;20654;-73
2021/04/23 04:00:29;;;;;;;12.07;3.80;;;3.60;86.20;;;;;;5111184;28;20734;-73
2021/04/23 04:02:55;;;;;;;16.03;4.40;;;3.60;85.30;;;;;;5111141;28;20309;-73
2021/04/23 04:05:21;;;;;;;14.00;4.03;;;3.60;85.40;;;;;;5111363;28;20388;-73
2021/04/23 04:07:48;;;;;;;13.70;4.20;;;3.50;85.40;;;;;;5111768;28;20056;-73
2021/04/23 04:10:17;;;;;;;12.67;3.60;;;3.60;85.60;;;;;;5110837;28;20338;-73
2021/04/23 04:12:43;;;;;;;11.70;4.20;;;3.60;85.60;;;;;;5108285;28;20297;-73
2021/04/23 04:15:10;;;;;;;12.73;4.10;;;3.60;85.60;;;;;;5109143;28;20323;-73
2021/04/23 04:17:36;;;;;;;10.90;4.03;;;3.60;85.70;;;;;;5111447;28;20301;-73
2021/04/23 04:20:05;;;;;;;12.37;3.87;;;3.70;86.90;;;;;;5109902;28;20332;-73
2021/04/23 04:22:31;;;;;;;10.83;3.90;;;3.70;85.80;;;;;;5111296;28;20411;-73
2021/04/23 04:24:57;;;;;;;12.43;4.20;;;3.80;85.70;;;;;;5110637;28;20372;-73
2021/04/23 04:27:23;;;;;;;13.00;4.10;;;3.80;85.80;;;;;;5110455;28;20051;-73
2021/04/23 04:29:48;;;;;;;13.53;3.87;;;3.90;85.70;;;;;;5109118;28;20338;-73
2021/04/23 04:32:15;;;;;;;9.33;3.70;;;4.00;85.70;;;;;;5110336;28;20427;-73
2021/04/23 04:34:41;;;;;;;13.53;4.57;;;4.10;85.40;;;;;;5110400;28;20059;-73
2021/04/23 04:37:07;;;;;;;11.57;3.60;;;4.10;85.30;;;;;;5111021;28;20305;-73
2021/04/23 04:39:32;;;;;;;12.87;4.60;;;4.20;85.20;;;;;;5111236;28;20074;-73
2021/04/23 04:41:58;;;;;;;11.33;3.97;;;4.20;85.20;;;;;;5109446;28;20782;-73
2021/04/23 04:44:24;;;;;;;15.40;4.60;;;4.20;85.20;;;;;;5112090;28;20048;-73
2021/04/23 04:46:49;;;;;;;14.90;5.13;;;4.30;85.10;;;;;;5115010;28;20096;-73
2021/04/23 04:49:15;;;;;;;12.43;3.97;;;4.30;85.00;;;;;;5114517;28;20069;-73
2021/04/23 04:51:41;;;;;;;15.07;4.03;;;4.30;84.90;;;;;;5113979;28;20413;-73
2021/04/23 04:54:07;;;;;;;10.93;4.00;;;4.30;85.00;;;;;;5114434;28;20040;-73
2021/04/23 04:56:33;;;;;;;14.03;3.90;;;4.40;85.00;;;;;;5114221;28;20058;-73
2021/04/23 04:58:58;;;;;;;12.43;3.77;;;4.30;85.00;;;;;;5114127;28;20126;-72
2021/04/23 05:01:24;;;;;;;16.47;4.80;;;4.40;85.10;;;;;;5115088;28;20892;-73
2021/04/23 05:03:50;;;;;;;9.87;3.60;;;4.50;85.00;;;;;;5113965;28;20071;-73
2021/04/23 05:06:17;;;;;;;15.83;4.40;;;4.50;84.90;;;;;;5114955;28;20119;-74
2021/04/23 05:08:43;;;;;;;10.47;3.90;;;4.50;84.80;;;;;;5109367;28;20048;-73
2021/04/23 05:11:09;;;;;;;12.37;4.40;;;4.50;84.80;;;;;;5113641;28;20400;-74
2021/04/23 05:13:34;;;;;;;9.20;3.47;;;4.60;84.70;;;;;;5114472;28;20047;-72
2021/04/23 05:16:00;;;;;;;11.40;3.70;;;4.60;84.60;;;;;;5113162;28;20365;-73
2021/04/23 05:18:26;;;;;;;13.67;3.80;;;4.60;84.60;;;;;;5114733;28;20054;-72
2021/04/23 05:20:52;;;;;;;8.53;3.13;;;4.60;84.60;;;;;;5114310;28;20048;-73
2021/04/23 05:23:18;;;;;;;15.27;3.40;;;4.60;84.60;;;;;;5112461;28;20313;-73
2021/04/23 05:25:44;;;;;;;9.53;3.57;;;4.60;84.70;;;;;;5112869;28;20297;-72
2021/04/23 05:28:10;;;;;;;13.10;3.73;;;4.60;84.80;;;;;;5113904;28;20434;-73
2021/04/23 05:30:37;;;;;;;11.67;3.70;;;4.60;84.80;;;;;;5113413;28;20635;-73
2021/04/23 05:33:06;;;;;;;10.40;4.20;;;4.60;84.70;;;;;;5113345;28;20338;-72
2021/04/23 05:35:32;;;;;;;12.03;3.70;;;4.70;84.80;;;;;;5113037;28;20298;-72
2021/04/23 05:37:59;;;;;;;11.47;4.17;;;4.70;85.50;;;;;;5112905;28;20294;-73
2021/04/23 05:40:26;;;;;;;10.30;4.03;;;4.70;84.60;;;;;;5113553;28;20297;-73
2021/04/23 05:42:53;;;;;;;9.87;3.70;;;4.70;84.70;;;;;;5113350;28;20309;-73
2021/04/23 05:45:20;;;;;;;8.37;3.77;;;4.80;84.70;;;;;;5112361;28;20816;-73
2021/04/23 05:47:45;;;;;;;9.80;3.73;;;4.90;84.80;;;;;;5113459;28;20301;-75
2021/04/23 05:50:13;;;;;;;9.57;3.60;;;4.90;84.60;;;;;;5113150;28;20293;-73
2021/04/23 05:52:39;;;;;;;11.67;3.40;;;5.00;84.50;;;;;;5112832;28;20139;-74
2021/04/23 05:55:07;;;;;;;11.03;3.93;;;5.10;84.50;;;;;;5112414;28;20305;-73
2021/04/23 05:57:33;;;;;;;12.80;4.40;;;5.10;84.40;;;;;;5113130;28;20301;-73
2021/04/23 05:59:59;;;;;;;11.27;3.93;;;5.20;84.40;;;;;;5112282;28;20313;-73
2021/04/23 06:02:25;;;;;;;12.80;4.27;;;5.20;84.50;;;;;;5113196;28;20044;-74
2021/04/23 06:04:51;;;;;;;15.73;4.17;;;5.30;84.40;;;;;;5113034;28;20314;-73
2021/04/23 06:07:16;;;;;;;9.40;3.80;;;5.40;84.30;;;;;;5112106;28;20333;-73
2021/04/23 06:09:42;;;;;;;12.57;4.37;;;5.50;84.20;;;;;;5112810;28;20108;-73
2021/04/23 06:12:08;;;;;;;13.10;4.63;;;5.60;84.10;;;;;;5112130;28;20661;-73
2021/04/23 06:14:34;;;;;;;15.17;4.17;;;5.60;84.00;;;;;;5113252;28;20051;-73
2021/04/23 06:17:04;;;;;;;11.07;4.57;;;5.80;84.10;;;;;;5112476;28;20511;-73
2021/04/23 06:19:32;;;;;;;10.90;4.07;;;5.90;83.90;;;;;;5112147;28;20043;-74
2021/04/23 06:21:59;;;;;;;11.67;4.40;;;6.00;83.70;;;;;;5112150;28;20391;-73
2021/04/23 06:24:25;;;;;;;12.47;4.33;;;6.10;83.60;;;;;;5110626;28;20297;-74
2021/04/23 06:26:51;;;;;;;11.63;4.67;;;6.20;83.40;;;;;;5111634;28;20774;-73
2021/04/23 06:29:17;;;;;;;10.77;4.70;;;6.30;83.10;;;;;;5112540;28;20047;-74
2021/04/23 06:31:43;;;;;;;9.37;4.57;;;6.40;82.80;;;;;;5112179;28;20297;-73
2021/04/23 06:34:09;;;;;;;9.80;4.10;;;6.40;82.60;;;;;;5111773;28;20048;-73
2021/04/23 06:36:35;;;;;;;10.47;4.10;;;6.50;82.50;;;;;;5112733;28;20362;-74
2021/04/23 06:39:03;;;;;;;15.97;3.90;;;6.60;82.40;;;;;;5112400;28;20553;-74
2021/04/23 06:41:28;;;;;;;9.00;3.97;;;6.70;82.10;;;;;;5112083;28;20476;-73
2021/04/23 06:43:54;;;;;;;13.43;4.43;;;6.80;81.80;;;;;;5112637;28;20314;-74
2021/04/23 06:46:20;;;;;;;13.50;4.50;;;6.80;81.50;;;;;;5112856;28;20060;-74
2021/04/23 06:48:49;;;;;;;12.43;4.87;;;6.80;81.30;;;;;;5111856;28;20047;-73
2021/04/23 06:51:15;;;;;;;13.83;3.93;;;6.90;81.40;;;;;;5112491;28;20051;-73
2021/04/23 06:53:41;;;;;;;12.97;4.47;;;6.90;81.10;;;;;;5112640;28;20301;-73
2021/04/23 06:56:07;;;;;;;11.17;4.47;;;7.00;80.90;;;;;;5111400;28;20321;-73
2021/04/23 06:58:32;;;;;;;15.27;5.63;;;7.10;80.80;;;;;;5112524;28;20853;-73
2021/04/23 07:00:58;;;;;;;13.93;5.70;;;7.20;80.50;;;;;;5112016;28;20112;-74
2021/04/23 07:03:24;;;;;;;9.03;4.43;;;7.40;80.90;;;;;;5111692;28;20047;-74
2021/04/23 07:05:50;;;;;;;15.27;4.97;;;7.70;80.30;;;;;;5112003;28;20047;-73
2021/04/23 07:08:16;;;;;;;13.70;5.30;;;7.90;80.50;;;;;;5110624;28;20071;-74
2021/04/23 07:10:42;;;;;;;18.47;5.67;;;8.00;79.20;;;;;;5111985;28;20706;-74
2021/04/23 07:13:09;;;;;;;11.83;5.20;;;8.00;79.00;;;;;;5111911;28;20347;-74
2021/04/23 07:15:35;;;;;;;17.40;5.37;;;8.10;78.70;;;;;;5111836;28;20044;-74
2021/04/23 07:18:02;;;;;;;10.63;4.93;;;8.20;79.10;;;;;;5111575;28;20378;-75
2021/04/23 07:20:28;;;;;;;11.37;5.47;;;8.70;78.90;;;;;;5112109;28;20841;-73
2021/04/23 07:22:54;;;;;;;12.67;5.00;;;9.30;78.20;;;;;;5110954;28;20309;-74
2021/04/23 07:25:21;;;;;;;11.27;5.20;;;9.90;76.60;;;;;;5112284;28;20468;-74
2021/04/23 07:27:48;;;;;;;8.73;5.10;;;10.20;74.60;;;;;;5111723;28;20047;-74
2021/04/23 07:30:17;;;;;;;11.40;5.37;;;10.10;73.50;;;;;;5110983;28;20304;-74
2021/04/23 07:32:43;;;;;;;10.53;5.47;;;10.10;73.30;;;;;;5111437;28;20301;-74
2021/04/23 07:35:10;;;;;;;10.30;5.00;;;10.00;73.30;;;;;;5111758;28;20298;-74
2021/04/23 07:37:36;;;;;;;10.17;5.43;;;9.90;73.00;;;;;;5111044;28;20309;-73
2021/04/23 07:40:04;;;;;;;11.93;5.47;;;9.70;72.90;;;;;;5111298;28;20312;-73
2021/04/23 07:42:30;;;;;;;11.13;5.70;;;9.60;73.30;;;;;;5112015;28;20454;-72
2021/04/23 07:44:56;;;;;;;13.67;6.40;;;9.70;73.30;;;;;;5110311;28;20347;-73
2021/04/23 07:47:24;;;;;;;9.97;5.70;;;9.80;71.90;;;;;;5111460;28;20047;-73
2021/04/23 07:49:50;;;;;;;12.63;5.70;;;9.90;71.10;;;;;;5111049;28;20404;-73
2021/04/23 07:52:16;;;;;;;13.67;6.03;;;10.10;70.60;;;;;;5110384;28;20333;-73
2021/04/23 07:54:42;;;;;;;12.07;5.80;;;10.00;70.00;;;;;;5111251;28;20850;-74
2021/04/23 07:57:09;;;;;;;13.13;6.60;;;10.10;69.90;;;;;;5111027;28;20039;-75
2021/04/23 07:59:36;;;;;;;12.93;6.53;;;10.50;70.30;;;;;;5110591;28;20296;-74
2021/04/23 08:02:03;;;;;;;12.40;6.53;;;10.50;68.60;;;;;;5110638;28;20313;-76
2021/04/23 08:04:29;;;;;;;12.97;6.97;;;10.20;69.00;;;;;;5111001;28;20044;-77
2021/04/23 08:06:55;;;;;;;8.77;6.00;;;10.20;69.80;;;;;;5110622;28;20611;-76
2021/04/23 08:09:21;;;;;;;9.60;6.27;;;10.80;70.40;;;;;;5111416;28;20043;-77
2021/04/23 08:11:47;;;;;;;14.27;6.37;;;11.70;69.10;;;;;;5110401;28;20048;-76
2021/04/23 08:14:12;;;;;;;12.53;6.57;;;12.40;67.40;;;;;;5111037;28;20050;-77
2021/04/23 08:16:38;;;;;;;14.60;6.60;;;12.70;65.60;;;;;;5111243;28;20052;-80
2021/04/23 08:19:04;;;;;;;9.73;6.40;;;12.80;64.80;;;;;;5111968;28;20039;-77
2021/04/23 08:21:30;;;;;;;13.23;6.20;;;12.50;64.30;;;;;;5115330;28;20051;-76
2021/04/23 08:23:55;;;;;;;10.20;6.13;;;12.10;63.90;;;;;;5114661;28;20047;-76
2021/04/23 08:26:27;;;;;;;12.35;6.10;;;11.80;63.80;;;;;;5114390;28;20047;-76
2021/04/23 08:28:52;;;;;;;8.73;5.20;;;11.40;64.10;;;;;;5115041;28;20404;-77
2021/04/23 08:31:20;;;;;;;9.10;5.67;;;11.10;64.20;;;;;;5115017;28;20070;-74
2021/04/23 08:33:46;;;;;;;12.00;5.87;;;10.80;64.00;;;;;;5114132;28;20055;-75
2021/04/23 08:36:11;;;;;;;10.63;6.60;;;10.60;63.90;;;;;;5115245;28;20454;-76
2021/04/23 08:38:37;;;;;;;9.03;5.70;;;10.40;64.10;;;;;;5115157;28;20050;-76
2021/04/23 08:41:03;;;;;;;13.67;6.10;;;10.30;64.00;;;;;;5114140;28;20055;-75
2021/04/23 08:43:29;;;;;;;9.60;5.87;;;10.30;64.60;;;;;;5115199;28;20171;-76
2021/04/23 08:45:55;;;;;;;12.60;6.00;;;10.80;65.20;;;;;;5114644;28;20411;-76
2021/04/23 08:48:22;;;;;;;12.07;6.07;;;11.40;64.90;;;;;;5113379;28;20048;-75
2021/04/23 08:50:48;;;;;;;11.13;6.40;;;11.70;62.80;;;;;;5115105;28;20104;-75
2021/04/23 08:53:17;;;;;;;12.37;6.17;;;11.60;62.20;;;;;;5114903;28;20047;-75
2021/04/23 08:55:43;;;;;;;12.23;5.67;;;11.50;62.10;;;;;;5113933;28;20092;-76
2021/04/23 08:58:11;;;;;;;11.23;5.73;;;11.30;61.90;;;;;;5114311;28;20052;-74
2021/04/23 09:00:37;;;;;;;12.50;5.80;;;11.00;61.00;;;;;;5114882;28;20040;-74
2021/04/23 09:03:03;;;;;;;10.13;5.67;;;10.80;61.20;;;;;;5113706;28;20051;-74
2021/04/23 09:05:30;;;;;;;10.03;6.23;;;11.10;61.70;;;;;;5114855;28;20043;-75
2021/04/23 09:08:08;;;;;;;9.47;5.67;;;11.40;60.80;;;;;;5113362;28;20048;-76
2021/04/23 09:10:37;;;;;;;11.13;4.83;;;11.80;60.50;;;;;;5114920;28;20047;-74
2021/04/23 09:13:08;;;;;;;8.20;4.83;;;12.00;59.10;;;;;;5114073;28;20055;-74
2021/04/23 09:15:34;;;;;;;9.13;5.80;;;11.80;58.20;;;;;;5114178;28;20084;-73
2021/04/23 09:18:26;;;;;;;11.27;5.00;;;11.60;57.40;;;;;;5113590;28;20094;-75
2021/04/23 09:21:03;;;;;;;8.30;4.35;;;11.40;56.20;;;;;;5111181;27;20236;-74
2021/04/23 09:23:29;;;;;;;7.90;4.80;;;11.50;57.50;;;;;;5113689;28;20070;-74
2021/04/23 09:25:57;;;;;;;8.10;4.50;;;11.60;58.10;;;;;;5113742;28;20476;-74
2021/04/23 09:28:34;;;;;;;8.53;4.37;;;11.60;56.10;;;;;;5114486;28;20051;-74
2021/04/23 09:31:30;;;;;;;7.50;3.90;;;11.60;55.60;;;;;;5112343;28;20050;-74
2021/04/23 09:34:05;;;;;;;9.30;4.70;;;11.80;55.10;;;;;;5113653;28;20441;-75
2021/04/23 09:36:38;;;;;;;11.33;5.70;;;12.10;55.80;;;;;;5113817;28;20185;-74
2021/04/23 09:39:07;;;;;;;11.13;4.93;;;12.10;55.60;;;;;;5113662;28;20044;-74
2021/04/23 09:41:33;;;;;;;7.77;4.10;;;11.80;55.00;;;;;;5113925;28;20055;-74
2021/04/23 09:43:59;;;;;;;7.93;3.87;;;11.30;55.20;;;;;;5112867;28;20043;-74
2021/04/23 09:46:32;;;;;;;8.30;3.63;;;11.00;55.10;;;;;;5114300;28;20050;-75
2021/04/23 09:49:17;;;;;;;6.93;3.33;;;10.90;54.70;;;;;;5113480;28;20181;-75
2021/04/23 09:51:45;;;;;;;6.43;4.40;;;11.20;54.40;;;;;;5112869;28;20531;-76
2021/04/23 09:54:12;;;;;;;9.50;4.57;;;11.80;55.00;;;;;;5113842;28;20050;-76
2021/04/23 09:56:38;;;;;;;11.10;5.00;;;12.10;54.30;;;;;;5114022;28;20055;-74
2021/04/23 09:59:23;;;;;;;11.53;4.50;;;12.00;54.10;;;;;;5112460;28;20181;-75
2021/04/23 10:01:56;;;;;;;11.53;4.67;;;11.70;53.70;;;;;;5113290;28;20074;-75
2021/04/23 10:04:26;;;;;;;7.20;4.40;;;11.40;54.30;;;;;;5113283;28;20043;-75
2021/04/23 10:07:14;;;;;;;6.13;4.30;;;11.40;54.70;;;;;;5113569;28;20054;-75
2021/04/23 10:09:49;;;;;;;10.90;4.03;;;11.50;53.20;;;;;;5113892;28;20416;-75
2021/04/23 10:12:34;;;;;;;8.23;4.07;;;11.60;53.80;;;;;;5112589;28;20591;-74
2021/04/23 10:15:08;;;;;;;9.37;3.60;;;11.80;52.60;;;;;;5113014;28;20108;-74
2021/04/23 10:17:35;;;;;;;8.53;4.33;;;11.80;51.30;;;;;;5112854;28;20130;-74
2021/04/23 10:20:03;;;;;;;8.70;4.40;;;11.60;52.00;;;;;;5112272;28;20109;-74
2021/04/23 10:22:28;;;;;;;9.33;5.63;;;11.30;53.00;;;;;;5113466;28;20108;-75
2021/04/23 10:24:54;;;;;;;9.73;4.40;;;11.30;53.70;;;;;;5113222;28;20051;-76
2021/04/23 10:27:21;;;;;;;12.40;5.10;;;11.30;53.70;;;;;;5112570;28;20047;-74
2021/04/23 10:29:50;;;;;;;9.43;5.20;;;11.60;54.20;;;;;;5112599;28;20066;-71
2021/04/23 10:32:16;;;;;;;9.27;4.30;;;11.80;52.90;;;;;;5111892;28;20116;-71
2021/04/23 10:34:42;;;;;;;9.57;4.13;;;11.60;52.30;;;;;;5112665;28;20055;-71
2021/04/23 10:37:10;;;;;;;7.70;4.83;;;11.30;52.80;;;;;;5112912;28;20047;-71
2021/04/23 10:39:41;;;;;;;8.70;4.67;;;11.30;52.00;;;;;;5112403;28;20047;-71
2021/04/23 10:42:40;;;;;;;11.07;4.60;;;11.30;52.30;;;;;;5111531;28;20051;-72
2021/04/23 10:45:21;;;;;;;7.20;4.40;;;11.50;52.40;;;;;;5112166;28;20342;-72
2021/04/23 10:47:49;;;;;;;8.45;4.70;;;11.80;52.00;;;;;;5111824;28;20492;-71
2021/04/23 10:50:26;;;;;;;10.73;4.63;;;11.90;51.20;;;;;;5112220;28;20059;-72
2021/04/23 10:53:06;;;;;;;7.37;3.80;;;11.70;50.70;;;;;;5112243;28;20048;-71
2021/04/23 10:55:39;;;;;;;9.07;4.10;;;11.50;49.60;;;;;;5112008;28;20074;-71
2021/04/23 10:58:05;;;;;;;10.47;4.87;;;11.30;51.10;;;;;;5112096;28;20055;-72
2021/04/23 11:00:38;;;;;;;8.10;4.13;;;11.40;52.60;;;;;;5112073;28;20047;-72
2021/04/23 11:03:31;;;;;;;8.73;4.80;;;11.60;51.70;;;;;;5112058;28;20059;-72
2021/04/23 11:06:01;;;;;;;6.23;4.20;;;11.90;51.70;;;;;;5109508;28;20086;-72
2021/04/23 11:08:29;;;;;;;11.83;4.73;;;12.00;50.60;;;;;;5111930;28;20043;-73
2021/04/23 11:11:08;;;;;;;7.57;4.33;;;11.80;50.90;;;;;;5112092;28;20047;-72
2021/04/23 11:13:37;;;;;;;10.17;4.67;;;11.60;51.40;;;;;;5112451;28;20511;-72
2021/04/23 11:16:23;;;;;;;6.50;3.63;;;11.70;51.60;;;;;;5110819;28;20054;-72
2021/04/23 11:18:53;;;;;;;6.33;4.03;;;11.90;50.20;;;;;;5111827;28;20048;-72
2021/04/23 11:24:18;;;;;;;7.03;3.63;;;12.40;50.10;;;;;;5112072;28;20176;-72
2021/04/23 11:27:11;;;;;;;7.20;3.37;;;12.30;47.80;;;;;;5111909;28;20051;-72
2021/04/23 11:29:57;;;;;;;6.77;3.53;;;12.30;48.60;;;;;;5111676;28;20150;-72
2021/04/23 11:32:27;;;;;;;9.97;3.73;;;12.40;47.70;;;;;;5101043;28;20170;-72
2021/04/23 11:34:58;;;;;;;10.97;4.57;;;12.20;48.50;;;;;;5111606;28;20055;-73
2021/04/23 11:37:27;;;;;;;7.50;3.72;;;12.10;49.10;;;;;;5111163;28;20048;-72
2021/04/23 11:39:57;;;;;;;7.90;3.97;;;12.10;49.20;;;;;;5111943;28;20077;-72
2021/04/23 11:42:28;;;;;;;7.57;3.27;;;12.20;49.10;;;;;;5111635;28;20484;-72
2021/04/23 11:45:03;;;;;;;6.53;3.73;;;12.50;48.60;;;;;;5111253;28;20054;-72
2021/04/23 11:47:34;;;;;;;7.53;4.23;;;12.70;48.00;;;;;;5111826;28;20119;-73
2021/04/23 11:50:05;;;;;;;8.20;3.90;;;12.80;48.40;;;;;;5110473;28;20053;-75
2021/04/23 11:52:31;;;;;;;;;;;12.70;47.70;;;;;;5112235;28;20047;-72
2021/04/23 11:54:57;;;;;;;6.97;3.83;;;12.50;47.70;;;;;;5110910;28;19954;-72
2021/04/23 11:57:28;;;;;;;9.43;4.27;;;12.40;49.00;;;;;;5110706;28;20081;-72
2021/04/23 12:00:07;;;;;;;11.80;3.85;;;12.40;48.90;;;;;;5111213;28;20039;-72
2021/04/23 12:02:57;;;;;;;7.67;4.10;;;12.30;48.50;;;;;;5111449;28;20506;-73
2021/04/23 12:05:29;;;;;;;7.80;4.43;;;12.40;48.30;;;;;;5110822;28;20453;-71
2021/04/23 12:08:06;;;;;;;6.63;3.47;;;12.60;48.50;;;;;;5111185;28;20077;-71
2021/04/23 12:10:35;;;;;;;10.03;4.20;;;12.70;47.80;;;;;;5111375;28;20090;-72
2021/04/23 12:13:05;;;;;;;7.80;3.97;;;12.60;47.60;;;;;;5110150;28;20096;-71
2021/04/23 12:15:33;;;;;;;7.67;4.33;;;12.40;47.90;;;;;;5111752;28;20168;-72
2021/04/23 12:18:04;;;;;;;9.27;4.80;;;12.50;48.50;;;;;;5110287;28;20047;-72
2021/04/23 12:20:40;;;;;;;7.50;4.17;;;12.60;49.30;;;;;;5102951;28;20055;-72
2021/04/23 12:23:16;;;;;;;10.03;4.50;;;12.40;49.70;;;;;;5104478;28;20062;-71
2021/04/23 12:26:09;;;;;;;7.40;3.27;;;12.10;49.80;;;;;;5104350;28;20043;-73
2021/04/23 12:28:43;;;;;;;7.27;3.73;;;12.00;48.60;;;;;;5103059;28;20039;-72
2021/04/23 12:31:17;;;;;;;8.30;3.67;;;12.00;49.10;;;;;;5104776;28;20063;-71
2021/04/23 12:34:05;;;;;;;6.30;3.30;;;12.20;48.70;;;;;;5103481;28;20055;-70
2021/04/23 12:36:39;;;;;;;9.97;4.40;;;12.40;48.80;;;;;;5105062;28;20590;-73
2021/04/23 12:39:15;;;;;;;8.90;4.17;;;12.40;48.50;;;;;;5103767;28;20055;-74
2021/04/23 12:41:46;;;;;;;6.07;3.90;;;12.50;48.90;;;;;;5104532;28;20070;-74
2021/04/23 12:44:16;;;;;;;6.17;3.60;;;12.60;47.90;;;;;;5104330;28;20446;-73
2021/04/23 12:46:51;;;;;;;6.57;3.93;;;12.70;47.80;;;;;;5104251;28;20071;-69
2021/04/23 12:49:28;;;;;;;10.63;3.30;;;13.00;48.10;;;;;;5111117;28;20055;-69
2021/04/23 12:52:09;;;;;;;7.67;2.93;;;13.10;45.60;;;;;;5110618;28;20096;-70
2021/04/23 12:54:42;;;;;;;6.47;3.47;;;13.30;46.20;;;;;;5110294;28;20138;-70
2021/04/23 12:57:25;;;;;;;4.83;3.07;;;13.20;45.70;;;;;;5110733;28;20048;-70